Time,TemperatureF,DewpointF,PressureIn,WindDirection,WindDirectionDegrees,WindSpeedMPH,WindSpeedGustMPH,Humidity,HourlyPrecipIn,Conditions,Clouds,dailyrainin,SoftwareType,DateUTC
2013-07-28 00:11:00,54.9,51.0,29.97,West,271,6.0,14.0,87,0.00,,,0.00,weatherlink.com 1.10,2013-07-28 05:11:00,
2013-07-28 00:26:00,54.9,51.0,29.97,WNW,288,5.0,13.0,86,0.00,,,0.00,weatherlink.com 1.10,2013-07-28 05:26:00,
2013-07-28 00:41:00,55.0,51.0,29.97,WNW,298,8.0,13.0,86,0.00,,,0.00,weatherlink.com 1.10,2013-07-28 05:41:00,
2013-07-28 00:56:00,55.0,51.0,29.97,West,265,7.0,11.0,85,0.00,,,0.00,weatherlink.com 1.10,2013-07-28 05:56:00,
2013-07-28 01:11:00,54.9,51.0,29.96,WSW,244,0.0,15.0,86,0.00,,,0.00,weatherlink.com 1.10,2013-07-28 06:11:00,
2013-07-28 01:26:00,55.0,51.0,29.96,West,278,10.0,18.0,86,0.00,,,0.00,weatherlink.com 1.10,2013-07-28 06:26:00,
2013-07-28 01:42:00,55.3,51.0,29.96,WSW,238,0.0,11.0,85,0.00,,,0.00,weatherlink.com 1.10,2013-07-28 06:42:00,
2013-07-28 02:11:00,55.2,50.0,29.96,West,281,9.0,13.0,83,0.00,,,0.00,weatherlink.com 1.10,2013-07-28 07:11:00,
2013-07-28 02:26:00,55.2,50.0,29.96,West,259,11.0,18.0,81,0.00,,,0.00,weatherlink.com 1.10,2013-07-28 07:26:00,
2013-07-28 02:41:00,55.0,48.0,29.96,WNW,284,5.0,21.0,78,0.00,,,0.00,weatherlink.com 1.10,2013-07-28 07:41:00,
2013-07-28 02:57:00,53.5,49.0,29.96,NNW,343,15.0,21.0,83,0.00,,,0.00,weatherlink.com 1.10,2013-07-28 07:57:00,
2013-07-28 03:12:00,53.2,48.0,29.97,WNW,296,15.0,24.0,82,0.00,,,0.00,weatherlink.com 1.10,2013-07-28 08:12:00,
2013-07-28 03:27:00,53.3,48.0,29.97,WNW,303,7.0,16.0,82,0.00,,,0.00,weatherlink.com 1.10,2013-07-28 08:27:00,
2013-07-28 03:42:00,53.0,47.0,29.97,West,275,9.0,18.0,81,0.00,,,0.00,weatherlink.com 1.10,2013-07-28 08:42:00,
2013-07-28 03:57:00,52.7,47.0,29.98,WNW,290,7.0,22.0,82,0.00,,,0.00,weatherlink.com 1.10,2013-07-28 08:57:00,
2013-07-28 04:12:00,52.7,48.0,29.97,WNW,301,6.0,16.0,83,0.00,,,0.00,weatherlink.com 1.10,2013-07-28 09:12:00,
2013-07-28 04:27:00,52.8,48.0,29.98,West,277,2.0,15.0,83,0.00,,,0.00,weatherlink.com 1.10,2013-07-28 09:27:00,
2013-07-28 04:42:00,52.6,48.0,29.99,WNW,298,8.0,16.0,83,0.00,,,0.00,weatherlink.com 1.10,2013-07-28 09:42:00,
2013-07-28 04:57:00,52.3,48.0,29.99,WSW,254,5.0,13.0,85,0.00,,,0.00,weatherlink.com 1.10,2013-07-28 09:57:00,
2013-07-28 05:12:00,52.1,48.0,30.00,WNW,295,3.0,16.0,86,0.00,,,0.00,weatherlink.com 1.10,2013-07-28 10:12:00,
2013-07-28 05:27:00,52.2,48.0,30.00,NW,318,2.0,10.0,86,0.00,,,0.00,weatherlink.com 1.10,2013-07-28 10:27:00,
2013-07-28 05:42:00,52.6,49.0,30.00,NW,321,8.0,12.0,86,0.00,,,0.00,weatherlink.com 1.10,2013-07-28 10:42:00,
2013-07-28 05:57:00,53.0,49.0,30.00,WNW,302,0.0,11.0,86,0.00,,,0.00,weatherlink.com 1.10,2013-07-28 10:57:00,
2013-07-28 06:12:00,53.3,49.0,30.01,WNW,300,2.0,9.0,86,0.00,,,0.00,weatherlink.com 1.10,2013-07-28 11:12:00,
2013-07-28 06:27:00,52.8,49.0,30.01,West,279,7.0,10.0,87,0.00,,,0.00,weatherlink.com 1.10,2013-07-28 11:27:00,
2013-07-28 06:42:00,52.6,50.0,30.01,NW,306,5.0,10.0,89,0.00,,,0.00,weatherlink.com 1.10,2013-07-28 11:42:00,
2013-07-28 06:57:00,52.3,50.0,30.01,West,278,0.0,9.0,90,0.00,,,0.00,weatherlink.com 1.10,2013-07-28 11:57:00,
2013-07-28 07:12:00,52.3,50.0,30.01,WNW,286,0.0,6.0,92,0.00,,,0.00,weatherlink.com 1.10,2013-07-28 12:12:00,
2013-07-28 07:27:00,52.5,50.0,30.02,NW,321,0.0,6.0,92,0.00,,,0.00,weatherlink.com 1.10,2013-07-28 12:27:00,
2013-07-28 07:42:00,52.8,51.0,30.02,WNW,292,2.0,6.0,92,0.00,,,0.00,weatherlink.com 1.10,2013-07-28 12:42:00,
2013-07-28 07:57:00,53.0,51.0,30.02,West,273,0.0,7.0,92,0.00,,,0.00,weatherlink.com 1.10,2013-07-28 12:57:00,
2013-07-28 08:12:00,53.3,51.0,30.02,West,261,0.0,8.0,92,0.00,,,0.00,weatherlink.com 1.10,2013-07-28 13:12:00,
2013-07-28 08:27:00,54.3,51.0,30.02,West,279,4.0,11.0,89,0.00,,,0.00,weatherlink.com 1.10,2013-07-28 13:27:00,
2013-07-28 08:42:00,55.7,51.0,30.02,NNW,329,7.0,13.0,84,0.00,,,0.00,weatherlink.com 1.10,2013-07-28 13:42:00,
2013-07-28 08:57:00,55.7,51.0,30.02,NW,309,5.0,15.0,83,0.00,,,0.00,weatherlink.com 1.10,2013-07-28 13:57:00,
2013-07-28 09:12:00,55.8,50.0,30.02,WSW,257,8.0,13.0,82,0.00,,,0.00,weatherlink.com 1.10,2013-07-28 14:12:00,
2013-07-28 09:27:00,55.9,51.0,30.02,WNW,283,6.0,14.0,82,0.00,,,0.00,weatherlink.com 1.10,2013-07-28 14:27:00,
2013-07-28 09:42:00,56.0,51.0,30.03,NW,306,0.0,12.0,82,0.00,,,0.00,weatherlink.com 1.10,2013-07-28 14:42:00,
2013-07-28 09:57:00,56.5,51.0,30.03,NW,304,7.0,12.0,81,0.00,,,0.00,weatherlink.com 1.10,2013-07-28 14:57:00,
2013-07-28 10:12:00,56.5,51.0,30.03,West,276,6.0,11.0,81,0.00,,,0.00,weatherlink.com 1.10,2013-07-28 15:12:00,
2013-07-28 10:27:00,56.9,51.0,30.03,West,265,8.0,11.0,81,0.00,,,0.00,weatherlink.com 1.10,2013-07-28 15:27:00,
2013-07-28 10:42:00,57.4,51.0,30.04,NW,313,5.0,12.0,79,0.00,,,0.00,weatherlink.com 1.10,2013-07-28 15:42:00,
2013-07-28 10:57:00,58.5,51.0,30.04,West,269,5.0,10.0,77,0.00,,,0.00,weatherlink.com 1.10,2013-07-28 15:57:00,
2013-07-28 11:12:00,58.1,52.0,30.04,WNW,292,6.0,10.0,80,0.00,,,0.00,weatherlink.com 1.10,2013-07-28 16:12:00,
2013-07-28 11:27:00,58.3,51.0,30.05,West,266,0.0,12.0,77,0.00,,,0.00,weatherlink.com 1.10,2013-07-28 16:27:00,
2013-07-28 11:42:00,58.9,52.0,30.05,WSW,253,7.0,13.0,77,0.00,,,0.00,weatherlink.com 1.10,2013-07-28 16:42:00,
2013-07-28 11:57:00,59.5,51.0,30.05,West,276,5.0,9.0,74,0.00,,,0.00,weatherlink.com 1.10,2013-07-28 16:57:00,
2013-07-28 12:12:00,59.7,52.0,30.04,West,273,8.0,11.0,76,0.00,,,0.00,weatherlink.com 1.10,2013-07-28 17:12:00,
2013-07-28 12:27:00,61.6,52.0,30.04,NW,311,0.0,10.0,71,0.00,,,0.00,weatherlink.com 1.10,2013-07-28 17:27:00,
2013-07-28 12:43:00,62.1,52.0,30.04,West,268,8.0,9.0,70,0.00,,,0.00,weatherlink.com 1.10,2013-07-28 17:43:00,
2013-07-28 12:58:00,63.4,53.0,30.04,WSW,256,0.0,7.0,69,0.00,,,0.00,weatherlink.com 1.10,2013-07-28 17:58:00,
2013-07-28 13:13:00,63.7,52.0,30.04,West,276,2.0,6.0,67,0.00,,,0.00,weatherlink.com 1.10,2013-07-28 18:13:00,
2013-07-28 13:28:00,63.0,52.0,30.04,NNW,327,0.0,18.0,68,0.00,,,0.00,weatherlink.com 1.10,2013-07-28 18:28:00,
2013-07-28 13:43:00,63.2,52.0,30.04,NW,309,13.0,13.0,68,0.00,,,0.00,weatherlink.com 1.10,2013-07-28 18:43:00,
2013-07-28 13:58:00,63.6,52.0,30.04,NW,322,10.0,15.0,67,0.00,,,0.00,weatherlink.com 1.10,2013-07-28 18:58:00,
2013-07-28 14:13:00,64.0,52.0,30.04,North,360,9.0,15.0,65,0.00,,,0.00,weatherlink.com 1.10,2013-07-28 19:13:00,
2013-07-28 14:28:00,64.4,53.0,30.04,NW,318,14.0,18.0,66,0.00,,,0.00,weatherlink.com 1.10,2013-07-28 19:28:00,
2013-07-28 14:43:00,64.3,52.0,30.04,NW,309,13.0,18.0,65,0.00,,,0.00,weatherlink.com 1.10,2013-07-28 19:43:00,
2013-07-28 14:58:00,66.3,53.0,30.03,NNW,342,8.0,12.0,62,0.00,,,0.00,weatherlink.com 1.10,2013-07-28 19:58:00,
2013-07-28 15:13:00,65.1,52.0,30.04,NW,315,11.0,19.0,63,0.00,,,0.00,weatherlink.com 1.10,2013-07-28 20:13:00,
2013-07-28 15:28:00,66.0,53.0,30.04,NW,313,9.0,15.0,63,0.00,,,0.00,weatherlink.com 1.10,2013-07-28 20:28:00,
2013-07-28 15:43:00,66.1,53.0,30.04,NNE,22,1.0,12.0,63,0.00,,,0.00,weatherlink.com 1.10,2013-07-28 20:43:00,
2013-07-28 15:58:00,66.1,53.0,30.04,North,11,5.0,14.0,63,0.00,,,0.00,weatherlink.com 1.10,2013-07-28 20:58:00,
2013-07-28 16:13:00,66.0,52.0,30.04,West,266,2.0,16.0,62,0.00,,,0.00,weatherlink.com 1.10,2013-07-28 21:13:00,
2013-07-28 16:28:00,65.9,53.0,30.04,WSW,252,0.0,14.0,63,0.00,,,0.00,weatherlink.com 1.10,2013-07-28 21:28:00,
2013-07-28 16:43:00,66.1,53.0,30.04,NW,321,4.0,13.0,64,0.00,,,0.00,weatherlink.com 1.10,2013-07-28 21:43:00,
2013-07-28 16:58:00,66.5,53.0,30.04,WSW,254,11.0,13.0,63,0.00,,,0.00,weatherlink.com 1.10,2013-07-28 21:58:00,
2013-07-28 17:13:00,67.1,53.0,30.04,West,270,4.0,11.0,62,0.00,,,0.00,weatherlink.com 1.10,2013-07-28 22:13:00,
2013-07-28 17:28:00,67.2,54.0,30.05,WNW,302,0.0,12.0,62,0.00,,,0.00,weatherlink.com 1.10,2013-07-28 22:28:00,
2013-07-28 17:43:00,67.6,54.0,30.05,West,268,1.0,13.0,61,0.00,,,0.00,weatherlink.com 1.10,2013-07-28 22:43:00,
2013-07-28 17:58:00,68.1,54.0,30.05,NW,319,5.0,14.0,61,0.00,,,0.00,weatherlink.com 1.10,2013-07-28 22:58:00,
2013-07-28 18:13:00,67.7,54.0,30.05,West,275,6.0,13.0,62,0.00,,,0.00,weatherlink.com 1.10,2013-07-28 23:13:00,
2013-07-28 18:28:00,67.7,54.0,30.05,WNW,292,2.0,10.0,62,0.00,,,0.00,weatherlink.com 1.10,2013-07-28 23:28:00,
2013-07-28 18:43:00,67.9,54.0,30.05,West,270,2.0,9.0,62,0.00,,,0.00,weatherlink.com 1.10,2013-07-28 23:43:00,
2013-07-28 18:58:00,68.1,54.0,30.06,West,277,4.0,11.0,62,0.00,,,0.00,weatherlink.com 1.10,2013-07-28 23:58:00,
2013-07-28 19:13:00,67.5,53.0,30.06,WNW,287,5.0,13.0,61,0.00,,,0.00,weatherlink.com 1.10,2013-07-29 00:13:00,
2013-07-28 19:28:00,67.6,54.0,30.06,WNW,286,4.0,12.0,62,0.00,,,0.00,weatherlink.com 1.10,2013-07-29 00:28:00,
2013-07-28 19:43:00,66.8,54.0,30.07,West,280,2.0,9.0,63,0.00,,,0.00,weatherlink.com 1.10,2013-07-29 00:43:00,
2013-07-28 19:58:00,66.7,54.0,30.07,WNW,284,2.0,8.0,65,0.00,,,0.00,weatherlink.com 1.10,2013-07-29 00:58:00,
2013-07-28 20:13:00,66.4,55.0,30.07,West,279,0.0,6.0,66,0.00,,,0.00,weatherlink.com 1.10,2013-07-29 01:13:00,
2013-07-28 20:28:00,65.9,55.0,30.07,West,279,0.0,5.0,67,0.00,,,0.00,weatherlink.com 1.10,2013-07-29 01:28:00,
2013-07-28 20:43:00,65.2,55.0,30.07,West,279,0.0,1.0,69,0.00,,,0.00,weatherlink.com 1.10,2013-07-29 01:43:00,
2013-07-28 20:58:00,64.6,55.0,30.07,West,279,0.0,1.0,71,0.00,,,0.00,weatherlink.com 1.10,2013-07-29 01:58:00,
2013-07-28 21:13:00,64.4,55.0,30.07,West,279,0.0,1.0,71,0.00,,,0.00,weatherlink.com 1.10,2013-07-29 02:13:00,
2013-07-28 21:28:00,64.0,55.0,30.08,West,279,0.0,2.0,72,0.00,,,0.00,weatherlink.com 1.10,2013-07-29 02:28:00,
2013-07-28 21:43:00,63.3,55.0,30.09,West,279,0.0,1.0,74,0.00,,,0.00,weatherlink.com 1.10,2013-07-29 02:43:00,
2013-07-28 21:58:00,62.5,55.0,30.10,West,279,0.0,0.0,76,0.00,,,0.00,weatherlink.com 1.10,2013-07-29 02:58:00,
2013-07-28 22:13:00,61.6,55.0,30.10,West,279,0.0,4.0,79,0.00,,,0.00,weatherlink.com 1.10,2013-07-29 03:13:00,
2013-07-28 22:28:00,61.2,55.0,30.10,West,279,0.0,2.0,80,0.00,,,0.00,weatherlink.com 1.10,2013-07-29 03:28:00,
2013-07-28 22:43:00,61.3,55.0,30.10,West,279,0.0,0.0,81,0.00,,,0.00,weatherlink.com 1.10,2013-07-29 03:43:00,
2013-07-28 22:58:00,60.5,55.0,30.11,West,279,0.0,2.0,82,0.00,,,0.00,weatherlink.com 1.10,2013-07-29 03:58:00,
2013-07-28 23:13:00,60.3,55.0,30.11,West,279,0.0,0.0,83,0.00,,,0.00,weatherlink.com 1.10,2013-07-29 04:13:00,
2013-07-28 23:28:00,59.5,54.0,30.11,West,279,0.0,2.0,83,0.00,,,0.00,weatherlink.com 1.10,2013-07-29 04:28:00,
2013-07-28 23:43:00,59.3,55.0,30.12,West,279,0.0,0.0,84,0.00,,,0.00,weatherlink.com 1.10,2013-07-29 04:43:00,
2013-07-28 23:58:00,58.4,54.0,30.12,West,279,0.0,2.0,86,0.00,,,0.00,weatherlink.com 1.10,2013-07-29 04:58:00,